Terminal Aerodrome Forecast
Issued by NWS Duluth, MN

Home | Current Version | Previous Version | Text Only | Print | Product List | Glossary On
Versions: 1 2 3 4 5 6 7 8 9 10 11 12 13 14 15 16 17 18 19 20 21 22 23 24 25 26 27
000
FTUS43 KDLH 010500
TAFDLH
TAF
KDLH 010533Z 0106/0206 21010KT P6SM VCSH SCT021 BKN070
     FM010800 24008KT P6SM -SN SCT023 BKN029
     FM011000 25009KT P6SM SCT029
     FM011500 27011KT P6SM BKN035
     FM020200 29010KT P6SM SKC=

USA.gov is the U.S. government's official web portal to all federal, state and local government web resources and services.